Time;durP1;ratioP1;P1;durP2;ratioP2;P2;SDS_P1;SDS_P2;PMS_P1;PMS_P2;Temp;Humidity;BMP_temperature;BMP_pressure;BME280_temperature;BME280_humidity;BME280_pressure;Samples;Min_cycle;Max_cycle;Signal;HPM_P1;HPM_P2
2024/01/03 00:01:09;;;;;;;7.72;2.45;;;;;;;11.04;84.69;98667.81;5054150;28;20082;-94
2024/01/03 00:03:35;;;;;;;11.55;2.15;;;;;;;11.05;85.16;98684.56;5036221;28;20045;-93
2024/01/03 00:06:00;;;;;;;6.60;1.92;;;;;;;11.04;85.66;98694.25;5053837;28;20036;-92
2024/01/03 00:08:30;;;;;;;12.00;2.33;;;;;;;10.97;85.69;98668.91;5036181;28;20033;-92
2024/01/03 00:10:56;;;;;;;12.45;2.50;;;;;;;11.03;84.88;98678.44;5053888;28;20469;-92
2024/01/03 00:13:31;;;;;;;8.82;2.58;;;;;;;11.02;86.10;98680.22;5053413;28;20025;-92
2024/01/03 00:16:00;;;;;;;10.65;2.28;;;;;;;10.89;85.31;98647.09;5053935;28;20063;-93
2024/01/03 00:18:29;;;;;;;11.32;2.75;;;;;;;10.98;85.21;98680.34;5054032;28;20522;-92
2024/01/03 00:20:57;;;;;;;11.23;2.33;;;;;;;10.99;84.83;98725.22;5053836;28;20037;-92
2024/01/03 00:23:33;;;;;;;8.73;2.35;;;;;;;11.01;85.07;98702.28;5053919;28;20032;-92
2024/01/03 00:25:58;;;;;;;15.10;2.58;;;;;;;10.98;85.80;98706.75;5053896;28;20029;-93
2024/01/03 00:28:25;;;;;;;8.55;2.80;;;;;;;10.94;85.50;98713.91;5036133;28;20381;-92
2024/01/03 00:30:50;;;;;;;8.95;2.40;;;;;;;10.82;85.91;98694.84;5053933;28;20025;-92
2024/01/03 00:33:16;;;;;;;12.05;2.58;;;;;;;10.84;86.65;98700.97;5036205;28;20426;-93
2024/01/03 00:35:44;;;;;;;15.45;2.90;;;;;;;10.80;87.68;98702.81;5053566;28;20585;-92
2024/01/03 00:38:10;;;;;;;15.38;2.95;;;;;;;10.88;87.76;98731.69;5036268;28;20481;-93
2024/01/03 00:40:55;;;;;;;13.95;3.20;;;;;;;10.71;89.03;98703.91;5054300;28;20040;-92
2024/01/03 00:43:21;;;;;;;14.25;2.90;;;;;;;10.81;88.90;98736.25;5053773;28;20107;-92
2024/01/03 00:45:48;;;;;;;13.57;2.95;;;;;;;10.72;90.76;98729.41;5036095;28;20052;-92
2024/01/03 00:48:15;;;;;;;21.90;3.72;;;;;;;10.74;91.77;98732.88;5035939;28;20153;-93
2024/01/03 00:50:40;;;;;;;18.90;3.50;;;;;;;10.79;91.40;98740.69;5053696;28;20032;-92
2024/01/03 00:53:08;;;;;;;16.50;3.30;;;;;;;10.57;91.69;98690.16;5053607;28;20385;-93
2024/01/03 00:55:34;;;;;;;21.25;3.38;;;;;;;10.78;92.48;98733.66;5035571;28;20434;-94
2024/01/03 00:58:00;;;;;;;12.82;3.13;;;;;;;10.72;93.53;98726.78;5053245;28;20116;-93
2024/01/03 01:00:26;;;;;;;20.08;3.58;;;;;;;10.56;94.27;98706.91;5053261;28;20033;-93
2024/01/03 01:02:52;;;;;;;17.92;4.18;;;;;;;10.69;95.03;98741.81;5035212;28;20056;-92
2024/01/03 01:05:17;;;;;;;18.33;3.92;;;;;;;10.63;95.97;98745.47;5018772;28;20337;-93
2024/01/03 01:07:43;;;;;;;25.20;4.43;;;;;;;10.61;96.88;98749.91;5053121;28;20452;-93
2024/01/03 01:10:08;;;;;;;18.23;3.67;;;;;;;10.62;97.64;98738.47;5053090;28;20048;-93
2024/01/03 01:12:34;;;;;;;16.65;3.28;;;;;;;10.62;97.65;98764.88;5035211;28;20029;-92
2024/01/03 01:15:00;;;;;;;22.42;3.30;;;;;;;10.48;98.53;98756.38;5035403;28;20416;-93
2024/01/03 01:17:26;;;;;;;20.15;3.78;;;;;;;10.53;98.51;98758.03;5035527;28;20035;-94
2024/01/03 01:19:51;;;;;;;17.92;3.40;;;;;;;10.58;98.90;98752.66;5035188;28;20032;-91
2024/01/03 01:22:17;;;;;;;16.63;3.58;;;;;;;10.58;98.20;98757.03;5035228;28;20033;-92
2024/01/03 01:24:42;;;;;;;17.55;3.20;;;;;;;10.55;98.81;98771.19;5035187;28;20029;-93
2024/01/03 01:27:08;;;;;;;16.70;3.88;;;;;;;10.38;98.80;98750.44;5039599;28;20041;-92
2024/01/03 01:29:33;;;;;;;16.85;3.40;;;;;;;10.47;98.46;98762.56;5039283;28;20389;-94
2024/01/03 01:32:02;;;;;;;22.30;3.83;;;;;;;10.53;98.61;98758.03;5039106;28;20086;-93
2024/01/03 01:34:27;;;;;;;19.40;3.75;;;;;;;10.45;98.55;98761.75;5056663;28;20064;-93
2024/01/03 01:36:53;;;;;;;21.75;3.72;;;;;;;10.55;99.34;98772.97;5056492;28;20389;-92
2024/01/03 01:39:18;;;;;;;15.65;3.40;;;;;;;10.47;98.68;98760.78;5022504;28;20033;-93
2024/01/03 01:41:43;;;;;;;22.45;3.67;;;;;;;10.53;98.81;98772.97;5056652;28;20041;-93
2024/01/03 01:44:09;;;;;;;21.58;3.65;;;;;;;10.48;99.50;98769.56;5005940;28;20037;-92
2024/01/03 01:46:36;;;;;;;19.30;3.50;;;;;;;10.57;99.81;98776.44;5056641;28;20428;-92
2024/01/03 01:49:04;;;;;;;24.95;3.53;;;;;;;10.54;99.51;98780.03;5056605;28;20037;-93
2024/01/03 01:51:31;;;;;;;23.55;4.15;;;;;;;10.56;100.00;98782.63;5056507;28;20032;-93
2024/01/03 01:53:57;;;;;;;16.13;3.25;;;;;;;10.51;100.00;98774.81;5022435;28;20048;-93
2024/01/03 01:56:22;;;;;;;24.67;4.25;;;;;;;10.58;99.69;98796.66;5056504;28;20108;-92
2024/01/03 01:58:52;;;;;;;20.42;3.95;;;;;;;10.49;99.43;98788.06;5056332;28;20033;-93
2024/01/03 02:01:21;;;;;;;20.13;3.67;;;;;;;10.59;99.80;98798.41;5038416;28;20028;-93
2024/01/03 02:03:49;;;;;;;21.60;3.90;;;;;;;10.56;99.02;98795.81;5056238;28;20082;-93
2024/01/03 02:06:15;;;;;;;14.68;3.80;;;;;;;10.64;98.89;98815.88;5055983;28;20032;-93
2024/01/03 02:08:41;;;;;;;17.88;3.83;;;;;;;10.58;98.12;98791.38;5038261;28;20044;-93
2024/01/03 02:11:06;;;;;;;19.38;3.55;;;;;;;10.65;97.46;98806.19;5022154;28;20029;-93
2024/01/03 02:13:32;;;;;;;18.92;3.42;;;;;;;10.42;97.59;98777.66;5021853;28;20033;-93
2024/01/03 02:15:57;;;;;;;21.25;3.80;;;;;;;10.73;97.82;98834.16;5056096;28;20044;-94
2024/01/03 02:18:29;;;;;;;16.98;3.85;;;;;;;10.75;98.06;98842.94;5038319;28;20040;-93
2024/01/03 02:20:56;;;;;;;15.73;3.60;;;;;;;10.72;98.98;98816.56;5037959;28;20390;-94
2024/01/03 02:23:22;;;;;;;22.40;4.07;;;;;;;10.62;100.00;98809.78;5038315;28;20060;-92
2024/01/03 02:25:47;;;;;;;20.92;3.60;;;;;;;10.70;100.00;98826.28;5038304;28;20487;-92
2024/01/03 02:28:12;;;;;;;24.42;4.20;;;;;;;10.67;100.00;98833.44;5037950;28;20076;-93
2024/01/03 02:30:41;;;;;;;15.70;3.90;;;;;;;10.57;100.00;98822.19;5037999;28;20063;-93
2024/01/03 02:33:07;;;;;;;20.25;3.88;;;;;;;10.51;100.00;98815.28;5038545;28;20126;-93
2024/01/03 02:35:32;;;;;;;18.08;3.80;;;;;;;10.45;100.00;98818.06;5055268;28;20500;-93
2024/01/03 02:37:57;;;;;;;19.73;3.83;;;;;;;10.53;100.00;98839.00;5005004;28;20110;-93
2024/01/03 02:40:25;;;;;;;25.10;4.55;;;;;;;10.48;100.00;98838.22;5055718;28;20183;-93
2024/01/03 02:42:51;;;;;;;20.58;3.63;;;;;;;10.46;100.00;98824.22;5037598;28;20374;-94
2024/01/03 02:45:16;;;;;;;23.45;3.80;;;;;;;10.44;100.00;98836.56;5055584;28;20039;-92
2024/01/03 02:47:41;;;;;;;16.48;3.45;;;;;;;10.25;100.00;98802.63;5037796;28;20033;-93
2024/01/03 02:50:07;;;;;;;21.90;3.65;;;;;;;10.43;100.00;98843.63;5055396;28;20033;-92
2024/01/03 02:52:34;;;;;;;16.42;3.15;;;;;;;10.42;100.00;98836.59;5055283;28;20033;-93
2024/01/03 02:55:00;;;;;;;14.82;3.55;;;;;;;10.31;100.00;98822.75;5038003;28;20029;-93
2024/01/03 02:57:26;;;;;;;16.30;3.78;;;;;;;10.39;100.00;98830.50;5055014;28;20056;-92
2024/01/03 02:59:51;;;;;;;23.35;3.95;;;;;;;10.25;100.00;98817.59;5055368;28;20043;-93
2024/01/03 03:02:17;;;;;;;18.20;3.55;;;;;;;10.26;100.00;98824.63;5054906;28;20124;-93
2024/01/03 03:04:43;;;;;;;25.58;3.80;;;;;;;10.36;100.00;98854.31;5054652;28;20045;-94
2024/01/03 03:07:08;;;;;;;14.00;3.25;;;;;;;10.34;100.00;98840.31;5037232;28;20040;-93
2024/01/03 03:09:41;;;;;;;19.70;3.80;;;;;;;10.35;100.00;98842.03;5004344;28;20508;-93
2024/01/03 03:12:07;;;;;;;22.27;3.80;;;;;;;10.28;100.00;98855.38;5036965;28;20025;-93
2024/01/03 03:14:32;;;;;;;24.88;4.50;;;;;;;10.09;100.00;98832.84;5054848;28;20044;-93
2024/01/03 03:16:58;;;;;;;19.88;3.92;;;;;;;10.25;100.00;98844.88;5055098;28;20044;-93
2024/01/03 03:19:24;;;;;;;17.02;3.97;;;;;;;10.15;100.00;98840.66;5055394;28;20028;-94
2024/01/03 03:21:49;;;;;;;18.77;4.05;;;;;;;10.16;100.00;98846.78;5055388;28;20175;-93
2024/01/03 03:24:15;;;;;;;16.05;3.20;;;;;;;10.22;100.00;98850.16;5037373;28;20119;-93
2024/01/03 03:26:43;;;;;;;15.30;3.67;;;;;;;10.11;100.00;98838.97;5055095;28;20459;-92
2024/01/03 03:29:08;;;;;;;23.30;3.80;;;;;;;10.19;100.00;98863.44;5021558;28;20083;-93
2024/01/03 03:31:34;;;;;;;17.70;3.88;;;;;;;10.06;100.00;98853.13;5054913;28;20029;-92
2024/01/03 03:33:59;;;;;;;23.38;4.25;;;;;;;10.13;100.00;98823.09;5054513;28;20503;-93
2024/01/03 03:36:24;;;;;;;16.63;3.60;;;;;;;10.11;100.00;98851.28;5036993;28;20045;-93
2024/01/03 03:38:50;;;;;;;19.40;3.92;;;;;;;10.17;100.00;98859.09;5020557;28;20029;-94
2024/01/03 03:41:19;;;;;;;19.42;3.80;;;;;;;10.14;100.00;98865.28;5020371;28;20033;-93
2024/01/03 03:43:45;;;;;;;23.50;3.78;;;;;;;10.09;100.00;98864.50;5021528;28;20469;-93
2024/01/03 03:46:16;;;;;;;25.38;4.30;;;;;;;9.94;100.00;98833.16;5055225;28;20032;-93
2024/01/03 03:48:41;;;;;;;25.13;4.43;;;;;;;9.99;100.00;98847.97;5036096;28;20028;-93
2024/01/03 03:51:07;;;;;;;31.05;4.35;;;;;;;10.04;100.00;98853.16;5004140;28;20033;-93
2024/01/03 03:53:33;;;;;;;20.10;3.40;;;;;;;9.94;100.00;98834.00;5020384;28;20496;-93
2024/01/03 03:55:58;;;;;;;17.23;3.40;;;;;;;9.97;100.00;98846.25;5036615;28;20032;-93
2024/01/03 03:58:24;;;;;;;19.83;3.70;;;;;;;9.92;100.00;98848.13;5025246;28;20041;-93
2024/01/03 04:00:49;;;;;;;20.00;3.45;;;;;;;9.90;100.00;98845.53;5034631;28;20163;-94
2024/01/03 04:03:14;;;;;;;21.23;3.97;;;;;;;9.94;100.00;98852.47;5017287;28;20430;-95
2024/01/03 04:05:40;;;;;;;21.05;4.38;;;;;;;9.89;100.00;98854.34;5034651;28;20041;-93
2024/01/03 04:08:06;;;;;;;16.48;3.67;;;;;;;9.85;100.00;98846.47;5016569;28;20034;-94
2024/01/03 04:10:31;;;;;;;20.45;3.80;;;;;;;9.84;100.00;98850.03;5016112;28;20444;-93
2024/01/03 04:12:57;;;;;;;20.60;3.40;;;;;;;9.59;100.00;98816.19;5016475;28;20030;-92
2024/01/03 04:15:25;;;;;;;18.52;3.40;;;;;;;9.86;100.00;98845.63;5034078;28;20033;-94
2024/01/03 04:17:51;;;;;;;20.83;3.47;;;;;;;9.88;100.00;98854.34;5016619;28;20116;-92
2024/01/03 04:20:16;;;;;;;16.73;3.58;;;;;;;9.83;100.00;98850.94;5033678;28;20117;-94
2024/01/03 04:22:44;;;;;;;15.48;3.05;;;;;;;9.93;100.00;98906.13;5033875;28;20160;-94
2024/01/03 04:25:10;;;;;;;14.40;3.00;;;;;;;9.92;100.00;98862.19;5016814;28;20128;-93
2024/01/03 04:27:36;;;;;;;16.40;3.25;;;;;;;9.78;100.00;98854.53;5017672;28;20026;-94
2024/01/03 04:30:02;;;;;;;15.95;3.10;;;;;;;9.88;100.00;98862.25;5001478;28;20034;-93
2024/01/03 04:32:28;;;;;;;18.83;4.00;;;;;;;9.94;100.00;98881.50;5016892;28;20036;-95
2024/01/03 04:34:53;;;;;;;14.90;2.75;;;;;;;9.92;100.00;98878.00;5042908;28;20044;-93
2024/01/03 04:37:18;;;;;;;12.60;3.00;;;;;;;9.86;100.00;98866.72;5019857;28;20068;-95
2024/01/03 04:39:44;;;;;;;17.00;3.55;;;;;;;9.82;100.00;98871.16;5035848;28;20086;-93
2024/01/03 04:42:09;;;;;;;15.55;3.42;;;;;;;9.78;100.00;98865.06;5036193;28;20028;-94
2024/01/03 04:44:38;;;;;;;17.35;3.00;;;;;;;9.84;100.00;98865.84;5053844;28;20437;-94
2024/01/03 04:47:07;;;;;;;12.38;3.10;;;;;;;9.79;100.00;98874.72;5053403;28;20404;-94
2024/01/03 04:49:32;;;;;;;13.05;2.55;;;;;;;9.87;100.00;98882.50;5036544;28;20116;-94
2024/01/03 04:51:58;;;;;;;15.27;2.90;;;;;;;9.84;100.00;98885.19;5053967;28;20472;-94
2024/01/03 04:54:23;;;;;;;16.42;3.10;;;;;;;9.88;100.00;98875.44;5036041;28;20033;-94
2024/01/03 04:56:48;;;;;;;15.05;2.85;;;;;;;9.86;100.00;98887.81;5036450;28;20116;-94
2024/01/03 04:59:14;;;;;;;11.40;2.50;;;;;;;9.77;100.00;98876.53;5036192;28;20125;-94
2024/01/03 05:01:41;;;;;;;8.77;2.10;;;;;;;9.90;100.00;98879.81;5037266;28;20060;-95
2024/01/03 05:04:07;;;;;;;10.07;2.55;;;;;;;9.93;100.00;98902.63;5038888;28;20032;-95
2024/01/03 05:06:33;;;;;;;7.93;2.22;;;;;;;9.92;100.00;98891.19;5040370;28;20564;-94
2024/01/03 05:08:58;;;;;;;7.88;2.50;;;;;;;9.79;100.00;98868.56;5063973;28;20138;-93
2024/01/03 05:11:24;;;;;;;11.70;2.50;;;;;;;9.91;100.00;98881.56;5047989;28;20082;-94
2024/01/03 05:13:49;;;;;;;10.70;2.45;;;;;;;9.74;100.00;98875.72;5044138;28;20037;-95
2024/01/03 05:16:14;;;;;;;6.93;2.00;;;;;;;9.86;100.00;98893.97;5043537;28;20505;-94
2024/01/03 05:18:40;;;;;;;9.13;2.33;;;;;;;9.71;100.00;98881.03;5060084;28;20033;-93
2024/01/03 05:21:06;;;;;;;13.95;2.65;;;;;;;9.79;100.00;98908.13;5024399;28;20037;-94
2024/01/03 05:23:31;;;;;;;8.98;2.45;;;;;;;9.70;100.00;98897.75;5043217;28;20079;-94
2024/01/03 05:25:57;;;;;;;8.75;2.38;;;;;;;9.56;100.00;98882.19;5061846;28;20029;-93
2024/01/03 05:28:22;;;;;;;9.43;2.50;;;;;;;9.62;100.00;98895.25;5044126;28;20033;-94
2024/01/03 05:30:48;;;;;;;5.47;1.85;;;;;;;9.61;100.00;98897.91;5061576;28;20044;-95
2024/01/03 05:33:13;;;;;;;7.13;2.05;;;;;;;9.43;100.00;98872.72;5062055;28;20147;-94
2024/01/03 05:35:39;;;;;;;9.05;2.30;;;;;;;9.56;100.00;98913.81;5059782;28;20068;-94
2024/01/03 05:38:12;;;;;;;9.43;2.17;;;;;;;9.49;100.00;98883.16;5042205;28;20037;-94
2024/01/03 05:40:37;;;;;;;5.95;2.10;;;;;;;9.49;100.00;98867.34;5061551;28;20115;-95
2024/01/03 05:43:03;;;;;;;6.00;2.20;;;;;;;9.42;100.00;98898.22;5028190;28;20060;-94
2024/01/03 05:45:28;;;;;;;10.07;2.28;;;;;;;9.41;100.00;98882.41;5045375;28;20032;-93
2024/01/03 05:47:54;;;;;;;8.02;2.05;;;;;;;9.50;100.00;98896.31;5062864;28;20033;-92
2024/01/03 05:50:19;;;;;;;6.30;2.08;;;;;;;9.46;100.00;98893.75;5061789;28;20107;-94
2024/01/03 05:52:44;;;;;;;7.90;2.13;;;;;;;9.25;100.00;98866.00;5043783;28;20454;-93
2024/01/03 05:55:10;;;;;;;7.75;2.13;;;;;;;9.39;100.00;98892.13;5058598;28;20166;-93
2024/01/03 05:57:35;;;;;;;9.30;2.28;;;;;;;9.12;100.00;98853.88;5043048;28;20025;-94
2024/01/03 06:00:01;;;;;;;6.65;1.75;;;;;;;9.35;100.00;98898.34;5044166;28;20033;-93
2024/01/03 06:02:27;;;;;;;6.38;2.03;;;;;;;9.34;100.00;98899.25;5009163;28;20033;-92
2024/01/03 06:04:52;;;;;;;7.68;2.10;;;;;;;9.25;100.00;98887.94;5046922;28;20044;-91
2024/01/03 06:07:17;;;;;;;10.18;2.47;;;;;;;9.24;100.00;98896.72;5043244;28;20029;-94
2024/01/03 06:09:44;;;;;;;8.30;2.28;;;;;;;9.24;100.00;98909.91;5057829;28;20044;-94
2024/01/03 06:12:09;;;;;;;7.47;1.95;;;;;;;9.24;100.00;98909.03;5040900;28;20481;-92
2024/01/03 06:14:34;;;;;;;8.68;2.22;;;;;;;9.18;100.00;98902.09;5041775;28;20037;-94
2024/01/03 06:17:00;;;;;;;9.68;2.30;;;;;;;9.17;100.00;98917.94;5044356;28;20033;-92
2024/01/03 06:19:25;;;;;;;10.50;2.53;;;;;;;9.15;100.00;98911.81;5044122;28;20037;-94
2024/01/03 06:21:51;;;;;;;10.75;2.20;;;;;;;8.76;100.00;98848.25;5060226;28;20129;-93
2024/01/03 06:24:19;;;;;;;6.57;2.13;;;;;;;9.09;100.00;98915.41;5043044;28;20440;-93
2024/01/03 06:26:45;;;;;;;7.50;2.30;;;;;;;8.93;100.00;98890.16;5041776;28;20057;-93
2024/01/03 06:29:10;;;;;;;9.45;2.28;;;;;;;9.07;100.00;98914.53;5062117;28;20512;-91
2024/01/03 06:31:35;;;;;;;7.65;2.00;;;;;;;9.00;100.00;98905.00;5043699;28;20033;-92
2024/01/03 06:34:01;;;;;;;7.30;2.13;;;;;;;9.02;100.00;98917.25;5025579;28;20462;-92
2024/01/03 06:36:28;;;;;;;7.45;1.90;;;;;;;8.88;100.00;98882.34;5063540;28;20053;-90
2024/01/03 06:38:53;;;;;;;7.88;2.20;;;;;;;9.02;100.00;98908.47;5044803;28;20045;-92
2024/01/03 06:41:18;;;;;;;8.93;2.15;;;;;;;8.89;100.00;98889.34;5044103;28;20182;-93
2024/01/03 06:43:47;;;;;;;5.75;1.80;;;;;;;8.88;100.00;98894.63;5060739;28;20118;-90
2024/01/03 06:46:12;;;;;;;9.10;1.75;;;;;;;8.96;100.00;98905.94;5041367;28;20040;-92
2024/01/03 06:48:38;;;;;;;6.25;2.08;;;;;;;8.95;100.00;98910.34;5066371;28;20416;-92
2024/01/03 06:51:03;;;;;;;9.15;2.03;;;;;;;8.86;100.00;98897.28;5046141;28;20131;-91
2024/01/03 06:53:30;;;;;;;7.53;1.80;;;;;;;8.88;100.00;98913.06;5064994;28;20055;-91
2024/01/03 06:55:56;;;;;;;8.00;2.00;;;;;;;8.79;100.00;98906.16;5066671;28;20087;-92
2024/01/03 06:58:21;;;;;;;5.82;1.67;;;;;;;8.88;100.00;98915.69;5047844;28;20037;-91
2024/01/03 07:00:46;;;;;;;6.05;1.83;;;;;;;8.88;100.00;98915.69;5064996;28;20033;-92
2024/01/03 07:03:12;;;;;;;5.30;2.10;;;;;;;8.86;100.00;98931.50;5046465;28;20041;-92
2024/01/03 07:05:37;;;;;;;1.85;1.38;;;;;;;8.76;100.00;98935.16;5042018;28;20198;-93
2024/01/03 07:08:05;;;;;;;3.40;1.58;;;;;;;8.64;100.00;98933.53;5027509;28;20029;-91
2024/01/03 07:10:31;;;;;;;3.72;1.42;;;;;;;8.57;100.00;98928.41;5043886;28;20469;-92
2024/01/03 07:12:57;;;;;;;6.10;1.60;;;;;;;8.65;100.00;98950.22;5061684;28;20088;-92
2024/01/03 07:15:24;;;;;;;2.63;1.60;;;;;;;8.54;100.00;98934.56;5061734;28;20025;-91
2024/01/03 07:17:49;;;;;;;4.15;1.30;;;;;;;8.55;100.00;98951.22;5027351;28;20041;-92
2024/01/03 07:20:15;;;;;;;6.15;1.40;;;;;;;8.44;100.00;98944.34;5042278;28;20365;-89
2024/01/03 07:22:40;;;;;;;2.75;1.30;;;;;;;8.03;100.00;98884.22;5058175;28;20033;-90
2024/01/03 07:25:06;;;;;;;3.42;1.27;;;;;;;8.38;100.00;98952.28;5044969;28;20025;-92
2024/01/03 07:27:32;;;;;;;2.13;1.10;;;;;;;8.30;100.00;98943.56;5058881;28;20090;-90
2024/01/03 07:29:57;;;;;;;6.05;1.00;;;;;;;8.18;100.00;98946.31;5038862;28;20041;-91
2024/01/03 07:32:23;;;;;;;3.15;1.40;;;;;;;8.15;100.00;98935.84;5057036;28;20371;-91
2024/01/03 07:34:48;;;;;;;2.25;1.52;;;;;;;8.31;100.00;98965.47;5020195;28;20040;-91
2024/01/03 07:37:14;;;;;;;2.08;1.17;;;;;;;8.26;100.00;98971.69;5016995;28;20053;-93
2024/01/03 07:39:39;;;;;;;3.13;1.25;;;;;;;8.27;100.00;98972.56;5017439;28;20079;-92
2024/01/03 07:42:06;;;;;;;2.13;1.10;;;;;;;8.07;100.00;98937.66;5053887;28;20098;-93
2024/01/03 07:44:35;;;;;;;3.35;1.35;;;;;;;8.24;100.00;98969.94;5020549;28;20071;-91
2024/01/03 07:47:01;;;;;;;3.80;1.60;;;;;;;8.14;100.00;98955.16;5054051;28;20375;-94
2024/01/03 07:49:26;;;;;;;3.22;1.42;;;;;;;8.12;100.00;98965.66;5036729;28;20145;-92
2024/01/03 07:51:52;;;;;;;3.97;1.48;;;;;;;8.12;100.00;98962.16;5054334;28;20112;-92
2024/01/03 07:54:17;;;;;;;2.05;1.48;;;;;;;8.01;100.00;98952.63;5036572;28;20040;-94
2024/01/03 07:56:42;;;;;;;2.83;1.50;;;;;;;8.23;100.00;98984.00;5053800;28;20497;-93
2024/01/03 07:59:08;;;;;;;6.03;1.90;;;;;;;8.23;100.00;98984.00;5036228;28;20029;-91
2024/01/03 08:01:33;;;;;;;4.38;1.80;;;;;;;8.01;100.00;98946.50;5035945;28;20029;-94
2024/01/03 08:03:59;;;;;;;2.97;1.77;;;;;;;8.13;100.00;98958.66;5036158;28;20448;-92
2024/01/03 08:06:24;;;;;;;4.00;2.20;;;;;;;8.12;100.00;98957.78;5053868;28;20029;-92
2024/01/03 08:08:49;;;;;;;4.07;1.90;;;;;;;8.32;100.00;98976.00;5019809;28;20029;-92
2024/01/03 08:11:15;;;;;;;6.43;2.40;;;;;;;8.30;100.00;98983.03;5019221;28;20035;-90
2024/01/03 08:13:40;;;;;;;6.80;2.10;;;;;;;8.39;100.00;98987.34;5036341;28;20121;-92
2024/01/03 08:16:10;;;;;;;10.00;2.47;;;;;;;8.23;100.00;98949.78;5020109;28;20029;-92
2024/01/03 08:18:36;;;;;;;10.60;2.65;;;;;;;8.40;100.00;98984.72;5035795;28;20033;-93
2024/01/03 08:21:01;;;;;;;9.45;2.60;;;;;;;8.35;100.00;98975.97;5037705;28;20036;-93
2024/01/03 08:23:27;;;;;;;8.10;2.13;;;;;;;8.46;100.00;98989.03;5064450;28;20052;-93
2024/01/03 08:25:52;;;;;;;7.15;2.17;;;;;;;8.48;100.00;98993.41;5053657;28;20351;-93
2024/01/03 08:28:17;;;;;;;7.18;2.00;;;;;;;8.40;100.00;98983.88;5053811;28;20033;-93
2024/01/03 08:30:43;;;;;;;7.88;2.40;;;;;;;8.42;100.00;98990.84;5035763;28;20033;-93
2024/01/03 08:33:08;;;;;;;11.13;2.35;;;;;;;8.46;100.00;98992.53;5019209;28;20124;-92
2024/01/03 08:35:33;;;;;;;10.68;2.33;;;;;;;8.50;100.00;98996.91;5035022;28;20452;-94
2024/01/03 08:37:59;;;;;;;8.38;2.03;;;;;;;8.49;100.00;98994.28;5053285;28;20072;-94
2024/01/03 08:40:24;;;;;;;11.38;2.30;;;;;;;8.44;100.00;98989.06;5035753;28;20025;-94
2024/01/03 08:42:49;;;;;;;10.20;1.90;;;;;;;8.51;100.00;99001.25;5035747;28;20055;-93
2024/01/03 08:45:15;;;;;;;6.90;3.05;;;;;;;8.42;100.00;98985.56;5019205;28;20432;-92
2024/01/03 08:47:40;;;;;;;9.65;2.00;;;;;;;8.51;100.00;98996.00;5053419;28;20033;-93
2024/01/03 08:50:06;;;;;;;10.73;2.08;;;;;;;8.62;100.00;99019.59;5053401;28;20086;-93
2024/01/03 08:52:31;;;;;;;13.98;2.60;;;;;;;8.68;100.00;99005.47;5054307;28;20385;-92
2024/01/03 08:54:59;;;;;;;16.42;2.70;;;;;;;8.67;100.00;99009.00;5053406;28;20029;-93
2024/01/03 08:57:24;;;;;;;11.05;2.60;;;;;;;8.70;100.00;99015.13;5035115;28;20431;-92
2024/01/03 08:59:50;;;;;;;9.07;2.42;;;;;;;8.66;100.00;99005.50;5053110;28;20029;-94
2024/01/03 09:02:15;;;;;;;11.95;2.60;;;;;;;8.63;100.00;98997.63;5053131;28;20037;-91
2024/01/03 09:04:41;;;;;;;11.15;3.25;;;;;;;8.74;100.00;99011.56;5052987;28;20527;-91
2024/01/03 09:07:06;;;;;;;18.08;3.25;;;;;;;8.60;100.00;98981.00;5058208;28;20059;-93
2024/01/03 09:09:31;;;;;;;16.25;2.90;;;;;;;8.86;100.00;99014.91;5053297;28;20033;-93
2024/01/03 09:11:57;;;;;;;17.90;3.15;;;;;;;8.83;100.00;99009.72;5018658;28;20382;-93
2024/01/03 09:14:22;;;;;;;22.92;2.92;;;;;;;8.91;100.00;99029.81;5052693;28;20464;-94
2024/01/03 09:16:48;;;;;;;20.08;3.20;;;;;;;9.00;100.00;99018.28;5035277;28;20037;-94
2024/01/03 09:19:13;;;;;;;14.38;2.88;;;;;;;9.05;100.00;99018.22;5035378;28;20041;-93
2024/01/03 09:21:45;;;;;;;23.63;3.80;;;;;;;9.04;100.00;99017.34;5052741;28;20065;-92
2024/01/03 09:24:11;;;;;;;15.43;3.00;;;;;;;9.11;100.00;99026.03;5034828;28;20420;-89
2024/01/03 09:26:40;;;;;;;17.13;3.05;;;;;;;9.19;100.00;99022.41;5054664;28;20033;-92
2024/01/03 09:29:06;;;;;;;22.60;3.47;;;;;;;9.26;100.00;99039.03;5019402;28;20044;-94
2024/01/03 09:31:33;;;;;;;20.83;3.30;;;;;;;9.27;100.00;99033.72;5052626;28;20120;-90
2024/01/03 09:33:59;;;;;;;12.98;2.83;;;;;;;9.12;100.00;98997.06;5018846;28;20139;-90
2024/01/03 09:36:25;;;;;;;19.85;3.40;;;;;;;9.30;100.00;99008.25;5052656;28;20120;-91
2024/01/03 09:38:50;;;;;;;16.67;3.55;;;;;;;9.47;100.00;99036.09;5034838;28;20025;-90
2024/01/03 09:41:16;;;;;;;15.32;3.20;;;;;;;9.36;100.00;99008.13;5052539;28;20037;-90
2024/01/03 09:43:45;;;;;;;18.00;3.03;;;;;;;9.53;100.00;99038.63;5057105;28;20036;-92
2024/01/03 09:46:11;;;;;;;17.70;3.45;;;;;;;9.61;100.00;99029.75;5037447;28;20033;-94
2024/01/03 09:48:41;;;;;;;16.40;3.03;;;;;;;9.72;100.00;99027.81;5056419;28;20453;-92
2024/01/03 09:51:07;;;;;;;17.67;3.65;;;;;;;9.80;100.00;99031.22;5056387;28;20398;-94
2024/01/03 09:53:33;;;;;;;12.73;2.88;;;;;;;9.87;100.00;99014.41;5057423;28;20407;-93
2024/01/03 09:55:59;;;;;;;22.15;3.40;;;;;;;10.04;100.00;99045.78;5061650;28;20041;-93
2024/01/03 09:58:25;;;;;;;17.77;3.10;;;;;;;10.04;100.00;99038.75;5056598;28;20033;-94
2024/01/03 10:00:50;;;;;;;13.27;2.85;;;;;;;10.06;100.00;99028.16;5056485;28;20029;-95
2024/01/03 10:03:16;;;;;;;19.27;3.35;;;;;;;10.21;100.00;99048.16;5056688;28;20032;-93
2024/01/03 10:05:43;;;;;;;15.85;3.67;;;;;;;10.19;100.00;99042.91;5056142;28;20155;-92
2024/01/03 10:08:16;;;;;;;19.77;3.30;;;;;;;10.11;100.00;99046.59;5056023;28;20391;-94
2024/01/03 10:10:45;;;;;;;20.70;3.78;;;;;;;10.14;100.00;99050.00;5056596;28;20068;-95
2024/01/03 10:13:29;;;;;;;21.20;3.30;;;;;;;9.94;100.00;99015.19;5038776;28;20033;-93
2024/01/03 10:15:54;;;;;;;21.58;3.42;;;;;;;10.15;100.00;99072.91;5022641;28;20033;-95
2024/01/03 10:18:21;;;;;;;17.30;3.30;;;;;;;10.14;100.00;99068.50;5054878;28;20025;-92
2024/01/03 10:20:47;;;;;;;22.70;4.07;;;;;;;10.13;100.00;99073.81;5038052;28;20032;-92
2024/01/03 10:23:14;;;;;;;19.08;3.83;;;;;;;10.18;100.00;99066.69;5056012;28;20424;-90
2024/01/03 10:25:44;;;;;;;17.35;3.50;;;;;;;10.15;100.00;99080.81;5037999;28;20032;-91
2024/01/03 10:28:15;;;;;;;22.52;4.00;;;;;;;10.06;100.00;99049.25;5055993;28;20481;-90
2024/01/03 10:30:41;;;;;;;21.35;3.60;;;;;;;10.31;100.00;99073.53;5055471;28;20029;-89
2024/01/03 10:33:09;;;;;;;25.90;3.75;;;;;;;10.39;100.00;99082.19;5055297;28;20603;-90
2024/01/03 10:35:36;;;;;;;25.63;4.00;;;;;;;10.45;100.00;99073.31;5059797;28;20052;-91
2024/01/03 10:38:03;;;;;;;17.73;3.65;;;;;;;10.32;100.00;99064.75;5027543;28;20037;-94
2024/01/03 10:40:31;;;;;;;17.70;3.38;;;;;;;10.41;100.00;99074.28;5037883;28;20041;-95
2024/01/03 10:42:58;;;;;;;22.42;3.85;;;;;;;10.27;100.00;99066.56;5055967;28;20068;-96
2024/01/03 10:45:27;;;;;;;22.30;3.67;;;;;;;10.41;100.00;99074.28;5058066;28;20108;-92
2024/01/03 10:47:53;;;;;;;25.08;4.07;;;;;;;10.36;100.00;99074.31;5059152;28;20025;-90
2024/01/03 10:50:19;;;;;;;16.95;4.00;;;;;;;10.30;100.00;99087.63;5037476;28;20033;-89
2024/01/03 10:52:45;;;;;;;18.15;3.65;;;;;;;10.37;100.00;99088.41;5056228;28;20021;-91
2024/01/03 10:55:17;;;;;;;20.70;3.78;;;;;;;10.32;100.00;99085.84;5037386;28;20478;-89
2024/01/03 10:58:01;;;;;;;19.73;3.20;;;;;;;10.36;100.00;99086.66;5036962;28;20029;-90
2024/01/03 11:00:30;;;;;;;20.20;4.03;;;;;;;10.34;100.00;99084.06;5037388;28;20393;-88
2024/01/03 11:03:15;;;;;;;18.17;3.78;;;;;;;10.27;100.00;99054.22;5054799;28;20040;-90
2024/01/03 11:05:53;;;;;;;18.30;3.50;;;;;;;10.37;100.00;99073.44;5029469;28;20045;-93
2024/01/03 11:08:23;;;;;;;15.60;3.55;;;;;;;10.45;100.00;99075.97;5055657;28;20520;-95
2024/01/03 11:10:51;;;;;;;21.17;3.70;;;;;;;10.50;100.00;99068.81;5037988;28;20115;-96
2024/01/03 11:13:30;;;;;;;17.88;3.40;;;;;;;10.56;100.00;99084.56;5040386;28;20033;-95
2024/01/03 11:15:58;;;;;;;17.38;3.72;;;;;;;10.46;100.00;99070.66;5055271;28;20389;-94
2024/01/03 11:18:44;;;;;;;19.85;3.78;;;;;;;10.42;100.00;99076.00;5038001;28;20029;-92
2024/01/03 11:21:35;;;;;;;18.88;3.90;;;;;;;10.33;100.00;99077.03;5037775;28;20033;-92
2024/01/03 11:24:01;;;;;;;15.05;3.35;;;;;;;10.26;100.00;99078.88;4982523;28;20167;-91